KEGI

Duke Field Airport

Crestview, Florida, USA
METAR KEGI 140725Z AUTO 12009G19KT 10SM -RA OVC007 18/17 A2987 RMK AO2 DZB17E19RAB19 SLP116 $
Observed Flight Rules
Dec-14 @ 07:25 UTC (17 minutes ago) Instrument Flight Rules
Wind Visibility Clouds Conditions
120° at 9 knots
 Gusting to 19 knots
10 miles
  • Overcast at 700' AGL
  • Light Rain
Temperatures Readings
Current 18°C / 64°F
Dewpoint 17°C / 63°F
Humidity 94%
Altimeter 29.87" Hg
Pressure 1011.6 hPa
Elevation 59
METAR KEGI 140725Z AUTO 12009G19KT 10SM -RA OVC007 18/17 A2987 RMK AO2 DZB17E19RAB19 SLP116 $
Observed Flight Rules
Dec-14 @ 07:25 UTC
(17 minutes ago)
IFR
Wind Visibility
120° at 9 knots
 Gusting to 19 knots
10 miles
Clouds
  • Overcast at 700' AGL
Conditions
  • Light Rain
Temperature Dewpoint
18°C / 64°F 17°C / 63°F
Humidity Altimeter Pressure
94% 29.87" Hg 1011.6 hPa